Time;durP1;ratioP1;P1;durP2;ratioP2;P2;SDS_P1;SDS_P2;PMS_P1;PMS_P2;Temp;Humidity;BMP_temperature;BMP_pressure;BME280_temperature;BME280_humidity;BME280_pressure;Samples;Min_cycle;Max_cycle;Signal;HPM_P1;HPM_P2
2024/02/27 00:02:09;;;;;;;;;0.00;0.00;;;;;11.31;100.00;100865.03;6264206;22;45588;-84
2024/02/27 00:04:35;;;;;;;;;0.00;0.00;;;;;11.27;100.00;100853.84;6268345;22;28371;-83
2024/02/27 00:07:00;;;;;;;;;0.00;0.00;;;;;11.37;100.00;100870.94;6294485;22;28469;-84
2024/02/27 00:09:25;;;;;;;;;0.00;0.00;;;;;11.33;100.00;100871.06;6277563;22;27767;-87
2024/02/27 00:11:51;;;;;;;;;0.00;0.00;;;;;11.25;100.00;100866.06;6266869;22;40438;-86
2024/02/27 00:14:20;;;;;;;;;1.00;0.00;;;;;11.27;100.00;100869.47;6293094;22;29251;-87
2024/02/27 00:16:48;;;;;;;;;0.25;0.25;;;;;11.28;100.00;100880.78;6267579;22;29349;-86
2024/02/27 00:19:13;;;;;;;;;0.00;0.00;;;;;11.25;100.00;100881.72;6266012;22;39393;-85
2024/02/27 00:21:39;;;;;;;;;1.00;1.00;;;;;11.37;100.00;100880.50;6266490;22;28454;-86
2024/02/27 00:24:04;;;;;;;;;1.67;0.00;;;;;11.34;100.00;100888.41;6293462;22;41827;-88
2024/02/27 00:26:33;;;;;;;;;0.00;0.00;;;;;11.35;100.00;100885.75;6267736;22;28764;-86
2024/02/27 00:29:01;;;;;;;;;0.00;0.00;;;;;11.22;100.00;100893.09;6293065;22;28789;-86
2024/02/27 00:31:27;;;;;;;;;2.00;2.00;;;;;11.22;100.00;100915.69;6294901;22;28233;-86
2024/02/27 00:33:52;;;;;;;;;0.00;0.00;;;;;11.46;100.00;100908.03;6266921;22;41337;-87
2024/02/27 00:36:20;;;;;;;;;3.00;3.00;;;;;11.53;100.00;100914.78;6266471;22;28330;-87
2024/02/27 00:38:46;;;;;;;;;0.00;0.00;;;;;11.58;100.00;100913.72;6292379;22;40043;-86
2024/02/27 00:41:11;;;;;;;;;1.00;1.00;;;;;11.42;100.00;100907.25;6292252;22;44444;-86
2024/02/27 00:43:39;;;;;;;;;1.00;1.00;;;;;11.42;100.00;100904.66;6266192;22;47479;-87
2024/02/27 00:46:05;;;;;;;;;0.50;0.50;;;;;11.21;100.00;100913.97;6266196;22;28757;-85
2024/02/27 00:48:33;;;;;;;;;0.00;0.00;;;;;11.25;100.00;100918.19;6265773;22;45894;-85
2024/02/27 00:50:58;;;;;;;;;0.00;0.00;;;;;11.23;100.00;100930.41;6292037;22;28415;-83
2024/02/27 00:53:23;;;;;;;;;0.00;0.00;;;;;11.35;100.00;100924.84;6291903;22;31464;-86
2024/02/27 00:55:48;;;;;;;;;0.00;0.00;;;;;11.33;100.00;100933.59;6272602;22;49546;-86
2024/02/27 00:58:14;;;;;;;;;1.00;1.00;;;;;11.36;100.00;100933.50;6267651;22;46210;-86
2024/02/27 01:00:39;;;;;;;;;0.00;0.00;;;;;11.35;100.00;100937.88;6292107;22;39365;-86
2024/02/27 01:03:04;;;;;;;;;0.00;0.00;;;;;11.38;100.00;100937.78;6293597;22;47963;-86
2024/02/27 01:05:30;;;;;;;;;0.00;0.00;;;;;11.37;100.00;100950.88;6265640;22;51946;-85
2024/02/27 01:07:58;;;;;;;;;0.00;0.00;;;;;11.38;100.00;100947.34;6293162;22;43476;-86
2024/02/27 01:10:27;;;;;;;;;0.00;0.00;;;;;11.48;100.00;100938.38;6291587;22;50309;-84
2024/02/27 01:12:55;;;;;;;;;0.00;0.00;;;;;11.36;100.00;100954.38;6292059;22;35332;-85
2024/02/27 01:15:23;;;;;;;;;0.00;0.00;;;;;11.21;100.00;100945.22;6292215;22;28297;-86
2024/02/27 01:17:58;;;;;;;;;0.00;0.00;;;;;11.23;100.00;100967.72;6266188;22;44125;-85
2024/02/27 01:20:23;;;;;;;;;0.50;0.25;;;;;11.18;100.00;100971.38;6294180;22;27824;-83
2024/02/27 01:22:48;;;;;;;;;0.50;0.50;;;;;11.22;100.00;100973.84;6292735;22;29111;-85
2024/02/27 01:25:17;;;;;;;;;0.00;0.00;;;;;11.22;100.00;100970.41;6293248;22;36980;-86
2024/02/27 01:27:43;;;;;;;;;0.00;0.00;;;;;11.39;100.00;100986.41;6296531;22;28528;-86
2024/02/27 01:30:11;;;;;;;;;1.50;1.50;;;;;11.46;100.00;100981.00;6269630;22;28544;-86
2024/02/27 01:32:40;;;;;;;;;0.00;0.00;;;;;11.40;100.00;100988.13;6270704;22;30637;-85
2024/02/27 01:35:12;;;;;;;;;0.00;0.00;;;;;11.52;100.00;100996.50;6271775;22;28442;-85
2024/02/27 01:37:39;;;;;;;;;1.00;1.00;;;;;11.50;100.00;100990.47;6296089;22;28241;-85
2024/02/27 01:40:10;;;;;;;;;3.00;3.00;;;;;11.46;100.00;100996.66;6267752;22;28550;-86
2024/02/27 01:42:48;;;;;;;;;0.00;0.00;;;;;11.52;100.00;101004.31;6292434;22;28384;-87
2024/02/27 01:45:22;;;;;;;;;0.00;0.00;;;;;11.53;100.00;101014.69;6294656;22;28188;-86
2024/02/27 01:47:49;;;;;;;;;0.00;0.00;;;;;11.53;100.00;101011.22;6268334;22;28388;-87
2024/02/27 01:50:17;;;;;;;;;0.00;0.00;;;;;11.51;100.00;101015.63;6292401;22;28514;-86
2024/02/27 01:52:43;;;;;;;;;0.00;0.00;;;;;11.52;100.00;101025.19;6292793;22;29283;-86
2024/02/27 01:55:11;;;;;;;;;0.00;0.00;;;;;11.49;100.00;101026.09;6294357;22;28333;-85
2024/02/27 01:57:37;;;;;;;;;0.00;0.00;;;;;11.47;100.00;101032.25;6266239;22;28456;-87
2024/02/27 02:00:09;;;;;;;;;1.00;1.00;;;;;11.47;100.00;101046.16;6292501;22;28451;-86
2024/02/27 02:02:38;;;;;;;;;0.00;0.00;;;;;11.39;100.00;101045.50;6291591;22;28783;-87
2024/02/27 02:05:08;;;;;;;;;0.00;0.00;;;;;11.45;100.00;101047.09;6267410;22;28953;-87
2024/02/27 02:07:35;;;;;;;;;0.75;0.75;;;;;11.41;100.00;101047.16;6266646;22;28316;-87
2024/02/27 02:10:01;;;;;;;;;0.00;0.00;;;;;11.42;100.00;101048.88;6292178;22;28381;-86
2024/02/27 02:12:29;;;;;;;;;0.00;0.00;;;;;11.44;100.00;101046.25;6266899;22;29533;-87
2024/02/27 02:14:55;;;;;;;;;0.00;0.00;;;;;11.41;100.00;101038.50;6265547;22;36842;-86
2024/02/27 02:17:20;;;;;;;;;0.00;0.00;;;;;11.41;100.00;101041.94;6294246;22;28361;-86
2024/02/27 02:19:45;;;;;;;;;1.67;1.67;;;;;11.41;100.00;101046.31;6265372;22;40639;-87
2024/02/27 02:22:11;;;;;;;;;1.00;0.00;;;;;11.40;100.00;101050.69;6264906;22;50569;-86
2024/02/27 02:24:42;;;;;;;;;1.00;1.00;;;;;11.40;100.00;101058.50;6265698;22;29199;-86
2024/02/27 02:27:09;;;;;;;;;0.75;0.00;;;;;11.39;100.00;101059.38;6292686;22;28218;-87
2024/02/27 02:29:40;;;;;;;;;0.00;0.00;;;;;11.35;100.00;101044.75;6292381;22;28249;-86
2024/02/27 02:32:06;;;;;;;;;0.00;0.00;;;;;11.32;100.00;101050.03;6292041;22;28597;-86
2024/02/27 02:34:31;;;;;;;;;0.00;0.00;;;;;11.36;100.00;101049.03;6266294;22;28398;-87
2024/02/27 02:36:56;;;;;;;;;1.00;1.00;;;;;11.31;100.00;101056.16;6302157;22;43351;-88
2024/02/27 02:39:22;;;;;;;;;0.00;0.00;;;;;11.31;100.00;101065.69;6265514;22;34665;-87
2024/02/27 02:41:50;;;;;;;;;0.00;0.00;;;;;11.29;100.00;101063.16;6292127;22;28432;-87
2024/02/27 02:44:15;;;;;;;;;1.00;0.00;;;;;11.22;100.00;101065.06;6291908;22;45815;-87
2024/02/27 02:46:42;;;;;;;;;1.00;1.00;;;;;11.22;100.00;101080.69;6266492;22;28502;-89
2024/02/27 02:49:08;;;;;;;;;0.00;0.00;;;;;11.21;100.00;101083.34;6266876;22;28435;-86
2024/02/27 02:51:33;;;;;;;;;0.00;0.00;;;;;11.20;100.00;101079.03;6265771;22;51338;-85
2024/02/27 02:54:09;;;;;;;;;0.00;0.00;;;;;11.21;100.00;101089.38;6293662;22;28389;-85
2024/02/27 02:56:34;;;;;;;;;1.00;0.00;;;;;11.04;100.00;101082.00;6293883;22;28268;-86
2024/02/27 02:59:05;;;;;;;;;0.00;0.00;;;;;11.02;100.00;101089.00;6293668;22;38101;-87
2024/02/27 03:01:30;;;;;;;;;0.50;0.50;;;;;11.18;100.00;101088.63;6265971;22;40106;-87
2024/02/27 03:03:56;;;;;;;;;0.00;0.00;;;;;11.16;100.00;101093.88;6265721;22;29735;-88
2024/02/27 03:06:21;;;;;;;;;1.00;0.00;;;;;11.18;100.00;101101.63;6291710;22;27895;-87
2024/02/27 03:08:47;;;;;;;;;3.00;0.00;;;;;11.27;100.00;101111.81;6293361;22;27905;-87
2024/02/27 03:11:19;;;;;;;;;0.00;0.00;;;;;11.24;100.00;101104.97;6293938;22;28611;-88
2024/02/27 03:13:45;;;;;;;;;0.00;0.00;;;;;11.20;100.00;101124.19;6266307;22;28256;-87
2024/02/27 03:16:11;;;;;;;;;2.00;1.00;;;;;11.15;100.00;101122.59;6293788;22;28249;-87
2024/02/27 03:18:39;;;;;;;;;0.00;0.00;;;;;11.26;100.00;101127.53;6292601;22;28285;-88
2024/02/27 03:21:04;;;;;;;;;0.00;0.00;;;;;11.14;100.00;101126.06;6265189;22;51389;-87
2024/02/27 03:23:30;;;;;;;;;0.75;0.00;;;;;11.08;100.00;101118.41;6264525;22;50237;-84
2024/02/27 03:25:57;;;;;;;;;0.00;0.00;;;;;11.13;100.00;101121.78;6265998;22;27748;-86
2024/02/27 03:28:25;;;;;;;;;0.67;0.67;;;;;11.24;100.00;101128.41;6240501;22;41337;-85
2024/02/27 03:30:54;;;;;;;;;1.00;1.00;;;;;11.16;100.00;101127.75;6266039;22;35405;-88
2024/02/27 03:33:19;;;;;;;;;0.00;0.00;;;;;11.15;100.00;101123.44;6265220;22;39513;-86
2024/02/27 03:35:44;;;;;;;;;0.00;0.00;;;;;11.18;100.00;101128.56;6266580;22;33868;-89
2024/02/27 03:38:13;;;;;;;;;0.00;0.00;;;;;11.20;100.00;101134.59;6268052;22;44834;-86
2024/02/27 03:40:41;;;;;;;;;3.25;0.00;;;;;11.19;100.00;101138.09;6271856;22;30050;-87
2024/02/27 03:43:12;;;;;;;;;4.50;1.00;;;;;11.20;100.00;101139.81;6271337;22;48477;-86
2024/02/27 03:45:41;;;;;;;;;0.00;0.00;;;;;11.19;100.00;101145.06;6273409;22;28274;-88
2024/02/27 03:48:06;;;;;;;;;3.75;2.00;;;;;11.19;100.00;101153.72;6269883;22;49786;-86
2024/02/27 03:50:35;;;;;;;;;0.00;0.00;;;;;11.17;100.00;101157.28;6270928;22;29144;-88
2024/02/27 03:53:00;;;;;;;;;0.00;0.00;;;;;11.17;100.00;101160.72;6267316;22;44636;-88
2024/02/27 03:55:25;;;;;;;;;0.00;0.00;;;;;11.08;100.00;101165.31;6268856;22;28328;-88
2024/02/27 03:57:57;;;;;;;;;0.00;0.00;;;;;11.06;100.00;101162.72;6242044;22;28373;-87
2024/02/27 04:00:26;;;;;;;;;0.00;0.00;;;;;11.14;100.00;101178.19;6267164;22;28495;-88
2024/02/27 04:02:55;;;;;;;;;0.00;0.00;;;;;11.10;100.00;101172.19;6266566;22;37944;-87
2024/02/27 04:05:21;;;;;;;;;0.00;0.00;;;;;11.08;100.00;101175.72;6268290;22;28258;-88
2024/02/27 04:07:46;;;;;;;;;2.75;2.75;;;;;11.10;100.00;101184.38;6268008;22;28278;-86
2024/02/27 04:10:14;;;;;;;;;0.00;0.00;;;;;11.06;100.00;101175.75;6266791;22;34702;-87
2024/02/27 04:12:40;;;;;;;;;0.00;0.00;;;;;11.12;100.00;101178.22;6267601;22;28763;-88
2024/02/27 04:15:06;;;;;;;;;0.00;0.00;;;;;11.18;100.00;101183.28;6270878;22;29913;-88
2024/02/27 04:17:34;;;;;;;;;0.00;0.00;;;;;11.23;100.00;101177.94;6304434;22;27807;-85
2024/02/27 04:20:00;;;;;;;;;0.00;0.00;;;;;11.04;100.00;101175.78;6268129;22;29852;-86
2024/02/27 04:22:25;;;;;;;;;0.67;0.00;;;;;11.03;100.00;101173.22;6268007;22;47720;-86
2024/02/27 04:24:50;;;;;;;;;0.00;0.00;;;;;11.14;100.00;101173.81;6294854;22;28290;-86
2024/02/27 04:27:19;;;;;;;;;3.00;1.00;;;;;11.02;100.00;101174.97;6264091;22;44470;-87
2024/02/27 04:29:44;;;;;;;;;0.00;0.00;;;;;10.98;100.00;101169.88;6266034;22;28671;-86
2024/02/27 04:32:10;;;;;;;;;0.33;0.33;;;;;10.95;100.00;101176.00;6268210;22;34650;-86
2024/02/27 04:34:36;;;;;;;;;0.00;0.00;;;;;10.96;100.00;101180.34;6242691;22;28381;-86
2024/02/27 04:37:04;;;;;;;;;0.75;0.75;;;;;10.95;100.00;101177.78;6267426;22;28467;-85
2024/02/27 04:39:30;;;;;;;;;0.25;0.25;;;;;11.05;100.00;101184.50;6267477;22;29480;-86
2024/02/27 04:41:55;;;;;;;;;0.00;0.00;;;;;11.10;100.00;101185.22;6266426;22;51116;-86
2024/02/27 04:44:20;;;;;;;;;0.00;0.00;;;;;11.14;100.00;101186.84;6292118;22;30217;-87
2024/02/27 04:46:49;;;;;;;;;0.00;0.00;;;;;11.13;100.00;101194.72;6266970;22;27880;-88
2024/02/27 04:49:14;;;;;;;;;1.00;1.00;;;;;11.17;100.00;101201.56;6265787;22;55113;-86
2024/02/27 04:51:40;;;;;;;;;1.00;1.00;;;;;11.15;100.00;101209.41;6241866;22;28578;-87
2024/02/27 04:54:05;;;;;;;;;0.00;0.00;;;;;11.12;100.00;101213.84;6267096;22;28399;-86
2024/02/27 04:56:30;;;;;;;;;1.00;1.00;;;;;11.11;100.00;101214.75;6266483;22;41809;-86
2024/02/27 04:58:58;;;;;;;;;3.33;3.33;;;;;11.11;100.00;101230.38;6291810;22;38782;-86
2024/02/27 05:01:27;;;;;;;;;0.00;0.00;;;;;11.13;100.00;101236.41;6241036;22;28878;-86
2024/02/27 05:03:55;;;;;;;;;3.00;1.50;;;;;11.09;100.00;101224.31;6266838;22;28281;-87
2024/02/27 05:06:21;;;;;;;;;0.00;0.00;;;;;11.08;100.00;101240.84;6266784;22;28392;-87
2024/02/27 05:08:46;;;;;;;;;0.00;0.00;;;;;11.05;100.00;101236.59;6267152;22;29020;-87
2024/02/27 05:11:11;;;;;;;;;0.00;0.00;;;;;11.05;100.00;101247.00;6266543;22;43759;-88
2024/02/27 05:13:37;;;;;;;;;0.00;0.00;;;;;11.03;100.00;101241.81;6268005;22;28330;-88
2024/02/27 05:16:06;;;;;;;;;3.00;1.00;;;;;11.08;100.00;101251.28;6266638;22;46345;-87
2024/02/27 05:18:34;;;;;;;;;0.00;0.00;;;;;11.11;100.00;101262.50;6267215;22;29701;-88
2024/02/27 05:21:04;;;;;;;;;1.00;1.00;;;;;11.10;100.00;101257.31;6267499;22;29844;-87
2024/02/27 05:23:29;;;;;;;;;0.00;0.00;;;;;11.07;100.00;101257.38;6294542;22;28241;-89
2024/02/27 05:25:55;;;;;;;;;1.50;0.00;;;;;11.06;100.00;101263.50;6267698;22;28293;-88
2024/02/27 05:28:20;;;;;;;;;0.00;0.00;;;;;11.04;100.00;101261.75;6266055;22;39218;-86
2024/02/27 05:30:46;;;;;;;;;0.00;0.00;;;;;11.04;100.00;101273.94;6267200;22;28238;-86
2024/02/27 05:33:11;;;;;;;;;3.00;3.00;;;;;10.98;100.00;101263.66;6267806;22;28211;-86
2024/02/27 05:35:36;;;;;;;;;9.00;9.00;;;;;11.02;100.00;101262.69;6267273;22;28552;-84
2024/02/27 05:38:02;;;;;;;;;0.00;0.00;;;;;11.01;100.00;101277.47;6265378;22;51655;-83
2024/02/27 05:40:46;;;;;;;;;;;;;;;;;;;;;
2024/02/27 05:43:59;;;;;;;;;;;;;;;;;;;;;
2024/02/27 05:55:03;;;;;;;;;;;;;;;;;;;;;
2024/02/27 05:57:47;;;;;;;;;;;;;;;;;;;;;
2024/02/27 06:00:33;;;;;;;;;0.00;0.00;;;;;10.96;100.00;101299.31;5940278;23;28457;-92
2024/02/27 06:02:58;;;;;;;;;0.00;0.00;;;;;10.99;100.00;101320.91;5944644;23;28654;-87
2024/02/27 06:05:23;;;;;;;;;0.00;0.00;;;;;10.85;100.00;101318.63;5920907;23;37035;-88
2024/02/27 06:07:51;;;;;;;;;0.00;0.00;;;;;10.84;100.00;101324.69;5942955;23;42267;-85
2024/02/27 06:10:19;;;;;;;;;0.00;0.00;;;;;10.88;100.00;101330.69;5944219;23;28303;-88
2024/02/27 06:12:45;;;;;;;;;0.50;0.00;;;;;10.82;100.00;101334.28;5943070;23;29575;-86
2024/02/27 06:15:10;;;;;;;;;0.00;0.00;;;;;10.81;100.00;101332.59;5943198;23;33441;-87
2024/02/27 06:17:35;;;;;;;;;3.00;3.00;;;;;10.80;100.00;101330.88;5943203;23;28388;-88
2024/02/27 06:20:04;;;;;;;;;0.00;0.00;;;;;10.84;100.00;101331.66;5943800;23;27963;-86
2024/02/27 06:22:33;;;;;;;;;0.00;0.00;;;;;10.87;100.00;101347.25;5934177;23;28357;-86
2024/02/27 06:24:59;;;;;;;;;0.00;0.00;;;;;10.90;100.00;101343.69;5887965;24;28448;-86
2024/02/27 06:27:24;;;;;;;;;0.00;0.00;;;;;10.82;100.00;101338.66;5908858;24;52104;-84
2024/02/27 06:30:10;;;;;;;;;0.00;0.00;;;;;10.82;100.00;101343.88;5947605;23;33297;-86
2024/02/27 06:32:35;;;;;;;;;0.00;0.00;;;;;10.79;100.00;101343.91;6096432;23;28509;-87
2024/02/27 06:35:01;;;;;;;;;0.00;0.00;;;;;10.81;100.00;101339.56;6118690;23;28826;-86
2024/02/27 06:37:26;;;;;;;;;1.00;1.00;;;;;10.79;100.00;101339.59;6119256;23;34914;-85
2024/02/27 06:39:54;;;;;;;;;0.00;0.00;;;;;10.82;100.00;101347.31;6228486;22;38333;-85
2024/02/27 06:42:47;;;;;;;;;;;;;;;;;;;;;
2024/02/27 06:45:42;;;;;;;;;;;;;;;;;;;;;
2024/02/27 06:48:10;;;;;;;;;0.25;0.25;;;;;10.74;100.00;101379.63;6195064;22;55705;-85
2024/02/27 06:50:35;;;;;;;;;0.00;0.00;;;;;10.72;100.00;101378.81;6292772;22;28237;-86
2024/02/27 06:53:00;;;;;;;;;0.00;0.00;;;;;10.72;100.00;101384.00;6266709;22;29621;-85
2024/02/27 06:55:26;;;;;;;;;0.00;0.00;;;;;10.73;100.00;101378.75;6292175;22;50556;-85
2024/02/27 06:57:51;;;;;;;;;0.00;0.00;;;;;10.75;100.00;101389.97;6264390;22;36426;-82
2024/02/27 07:00:17;;;;;;;;;0.00;0.00;;;;;10.69;100.00;101395.31;6264945;22;28342;-85
2024/02/27 07:02:42;;;;;;;;;3.75;1.00;;;;;10.75;100.00;101402.16;6265431;22;29316;-86
2024/02/27 07:05:15;;;;;;;;;0.00;0.00;;;;;10.74;100.00;101395.25;6239704;22;28720;-86
2024/02/27 07:07:40;;;;;;;;;0.00;0.00;;;;;10.70;100.00;101397.06;6293832;22;30864;-85
2024/02/27 07:10:06;;;;;;;;;0.00;0.00;;;;;10.72;100.00;101400.47;6239496;22;56022;-86
2024/02/27 07:12:34;;;;;;;;;0.00;0.00;;;;;10.77;100.00;101400.38;6267325;22;29533;-87
2024/02/27 07:15:02;;;;;;;;;0.00;0.00;;;;;10.76;100.00;101398.69;6268800;22;28294;-86
2024/02/27 07:17:28;;;;;;;;;0.50;0.50;;;;;10.76;100.00;101393.47;6295218;22;28324;-85
2024/02/27 07:19:57;;;;;;;;;0.00;0.00;;;;;10.79;100.00;101409.00;6294615;22;27802;-83
2024/02/27 07:22:23;;;;;;;;;0.00;0.00;;;;;10.78;100.00;101402.09;6294225;22;29114;-84
2024/02/27 07:24:48;;;;;;;;;0.00;0.00;;;;;10.76;100.00;101399.53;6240810;22;29150;-84
2024/02/27 07:27:14;;;;;;;;;0.00;0.00;;;;;10.78;100.00;101408.16;6293612;22;28364;-83
2024/02/27 07:29:39;;;;;;;;;1.00;1.00;;;;;10.77;100.00;101409.06;6266559;22;28636;-85
2024/02/27 07:32:05;;;;;;;;;0.00;0.00;;;;;10.81;100.00;101408.13;6266273;22;44767;-84
2024/02/27 07:34:30;;;;;;;;;0.00;0.00;;;;;10.84;100.00;101413.25;6240429;22;28785;-84
2024/02/27 07:37:00;;;;;;;;;0.00;0.00;;;;;10.89;100.00;101425.34;6292437;22;52094;-88
2024/02/27 07:39:48;;;;;;;;;4.00;1.00;;;;;10.84;100.00;101407.19;6264063;22;28480;-86
2024/02/27 07:42:19;;;;;;;;;1.50;0.25;;;;;10.85;100.00;101428.00;6238961;22;28452;-87
2024/02/27 07:44:45;;;;;;;;;0.00;0.00;;;;;10.81;100.00;101415.94;6266183;22;28685;-88
2024/02/27 07:47:10;;;;;;;;;0.00;0.00;;;;;10.87;100.00;101424.53;6240788;22;35598;-87
2024/02/27 07:49:36;;;;;;;;;0.00;0.00;;;;;10.94;100.00;101418.28;6293553;22;38545;-86
2024/02/27 07:52:01;;;;;;;;;0.00;0.00;;;;;10.98;100.00;101430.38;6266563;22;28318;-87
2024/02/27 07:54:27;;;;;;;;;0.00;0.00;;;;;10.98;100.00;101441.66;6310278;22;28568;-87
2024/02/27 07:56:52;;;;;;;;;0.00;0.00;;;;;11.00;100.00;101442.47;6301080;22;28380;-86
2024/02/27 07:59:17;;;;;;;;;1.00;1.00;;;;;10.95;100.00;101440.84;6266688;22;29146;-86
2024/02/27 08:01:46;;;;;;;;;0.00;0.00;;;;;10.96;100.00;101439.97;6293803;22;28985;-86
2024/02/27 08:04:14;;;;;;;;;0.00;0.00;;;;;10.98;100.00;101446.84;6265601;22;38448;-86
2024/02/27 08:06:43;;;;;;;;;0.00;0.00;;;;;10.97;100.00;101444.28;6293250;22;47987;-86
2024/02/27 08:09:11;;;;;;;;;0.00;0.00;;;;;11.00;100.00;101444.22;6265258;22;28352;-86
2024/02/27 08:11:40;;;;;;;;;0.00;0.00;;;;;10.98;100.00;101454.69;6266107;22;28498;-87
2024/02/27 08:14:08;;;;;;;;;0.00;0.00;;;;;11.00;100.00;101455.50;6293768;22;28218;-87
2024/02/27 08:16:40;;;;;;;;;0.00;0.00;;;;;10.96;100.00;101453.00;6294442;22;28348;-86
2024/02/27 08:19:12;;;;;;;;;2.25;0.00;;;;;10.97;100.00;101465.97;6293108;22;37117;-85
2024/02/27 08:21:37;;;;;;;;;0.00;0.00;;;;;10.94;100.00;101462.56;6265945;22;28541;-85
2024/02/27 08:24:21;;;;;;;;;0.00;0.00;;;;;10.96;100.00;101466.03;6265941;22;47176;-86
2024/02/27 08:26:46;;;;;;;;;0.50;0.00;;;;;10.99;100.00;101468.53;6292780;22;28391;-86
2024/02/27 08:29:15;;;;;;;;;0.00;0.00;;;;;11.01;100.00;101462.44;6265994;22;28408;-87
2024/02/27 08:31:40;;;;;;;;;0.00;0.00;;;;;11.02;100.00;101461.53;6293251;22;50295;-88
2024/02/27 08:34:05;;;;;;;;;0.00;0.00;;;;;11.02;100.00;101460.69;6266724;22;28412;-86
2024/02/27 08:36:35;;;;;;;;;1.00;1.00;;;;;11.07;100.00;101461.47;6266518;22;28451;-87
2024/02/27 08:39:08;;;;;;;;;0.00;0.00;;;;;11.12;100.00;101472.63;6264180;22;28488;-87
2024/02/27 08:41:35;;;;;;;;;0.00;0.00;;;;;11.08;100.00;101478.78;6293666;22;28390;-87
2024/02/27 08:44:07;;;;;;;;;0.00;0.00;;;;;11.06;100.00;101485.78;6293953;22;28395;-87
2024/02/27 08:46:33;;;;;;;;;0.00;0.00;;;;;11.06;100.00;101487.53;6293410;22;41015;-87
2024/02/27 08:49:02;;;;;;;;;0.00;0.00;;;;;11.08;100.00;101488.38;6266805;22;28451;-86
2024/02/27 08:51:33;;;;;;;;;0.00;0.00;;;;;11.07;100.00;101487.50;6293354;22;28558;-85
2024/02/27 08:53:59;;;;;;;;;0.75;0.75;;;;;11.04;100.00;101485.81;6265171;22;28844;-86
2024/02/27 08:56:24;;;;;;;;;0.00;0.00;;;;;11.03;100.00;101488.44;6266325;22;28314;-88
2024/02/27 08:58:50;;;;;;;;;0.00;0.00;;;;;11.09;100.00;101490.06;6266042;22;28488;-88
2024/02/27 09:01:15;;;;;;;;;0.00;0.00;;;;;11.15;100.00;101480.41;6266671;22;38619;-88
2024/02/27 09:03:41;;;;;;;;;0.00;0.00;;;;;11.17;100.00;101493.41;6266106;22;28412;-87
2024/02/27 09:06:09;;;;;;;;;0.00;0.00;;;;;11.18;100.00;101497.72;6266449;22;28468;-88
2024/02/27 09:08:35;;;;;;;;;0.00;0.00;;;;;11.19;100.00;101495.06;6266221;22;28246;-88
2024/02/27 09:11:00;;;;;;;;;0.00;0.00;;;;;11.20;100.00;101491.59;6266301;22;29913;-88
2024/02/27 09:13:25;;;;;;;;;3.00;1.50;;;;;11.29;100.00;101494.91;6240574;22;30436;-87
2024/02/27 09:15:51;;;;;;;;;0.00;0.00;;;;;11.28;100.00;101491.44;6266083;22;42249;-87
2024/02/27 09:18:16;;;;;;;;;1.00;1.00;;;;;11.43;100.00;101501.56;6265585;22;28450;-87
2024/02/27 09:20:43;;;;;;;;;0.67;0.00;;;;;11.47;100.00;101502.34;6292067;22;28883;-87
2024/02/27 09:23:38;;;;;;;;;0.75;0.00;;;;;11.48;100.00;101496.25;6264107;22;28455;-86
2024/02/27 09:26:11;;;;;;;;;0.00;0.00;;;;;11.45;100.00;101493.72;6173006;23;28466;-86
2024/02/27 09:29:23;;;;;;;;;0.00;0.00;;;;;11.50;100.00;101496.25;6176060;23;28390;-89
2024/02/27 09:31:57;;;;;;;;;0.00;0.00;;;;;11.56;100.00;101496.09;6196570;23;29851;-87
2024/02/27 09:35:01;;;;;;;;;0.00;0.00;;;;;11.52;100.00;101495.31;6179967;23;28439;-87
2024/02/27 09:38:06;;;;;;;;;0.00;0.00;;;;;11.55;100.00;101494.38;6123660;23;28350;-87
2024/02/27 09:40:58;;;;;;;;;;;;;;;;;;;;;
2024/02/27 09:44:13;;;;;;;;;;;;;;;;;;;;;
2024/02/27 09:50:27;;;;;;;;;;;;;;;;;;;;;
2024/02/27 09:56:03;;;;;;;;;6.00;6.00;;;;;12.01;100.00;101509.06;5977304;23;28347;-88
2024/02/27 09:58:28;;;;;;;;;0.00;0.00;;;;;12.08;100.00;101505.41;5985679;23;28641;-88
2024/02/27 10:00:57;;;;;;;;;0.00;0.00;;;;;12.17;100.00;101500.00;5961898;23;28367;-87
2024/02/27 10:03:33;;;;;;;;;3.00;0.50;;;;;12.19;100.00;101499.97;5985921;23;28419;-88
2024/02/27 10:09:08;;;;;;;;;0.00;0.00;;;;;12.31;100.00;101509.25;6021998;23;28332;-89
2024/02/27 10:11:34;;;;;;;;;1.00;0.00;;;;;12.31;100.00;101509.25;6024306;23;27791;-86
2024/02/27 10:17:49;;;;;;;;;0.00;0.00;;;;;12.39;100.00;101518.63;6022924;23;28484;-88
2024/02/27 10:20:17;;;;;;;;;0.00;0.00;;;;;12.47;100.00;101521.03;6075233;23;39401;-87
2024/02/27 10:22:45;;;;;;;;;0.00;0.00;;;;;12.58;100.00;101520.78;6102294;23;28304;-87
2024/02/27 10:25:41;;;;;;;;;0.00;0.00;;;;;12.77;100.00;101500.25;6144789;23;28338;-88
2024/02/27 10:28:07;;;;;;;;;0.00;0.00;;;;;13.09;100.00;101506.38;6148349;23;29665;-87
2024/02/27 10:31:01;;;;;;;;;0.00;0.00;;;;;13.39;100.00;101503.84;6144802;23;29847;-88
2024/02/27 10:33:27;;;;;;;;;0.00;0.00;;;;;13.62;100.00;101513.66;6262951;22;28340;-89
2024/02/27 10:35:56;;;;;;;;;0.50;0.00;;;;;13.78;100.00;101512.31;6266878;22;28357;-87
2024/02/27 10:38:22;;;;;;;;;0.25;0.25;;;;;13.88;100.00;101516.34;6265821;22;51320;-88
2024/02/27 10:40:47;;;;;;;;;0.00;0.00;;;;;13.94;100.00;101523.16;6267366;22;28294;-88
2024/02/27 10:43:13;;;;;;;;;0.00;0.00;;;;;14.05;100.00;101530.69;6294408;22;28439;-88
2024/02/27 10:45:40;;;;;;;;;0.00;0.00;;;;;14.03;100.00;101519.41;6240765;22;28441;-88
2024/02/27 10:48:11;;;;;;;;;0.00;0.00;;;;;13.99;100.00;101517.81;6241167;22;29882;-87
2024/02/27 10:50:57;;;;;;;;;0.00;0.00;;;;;14.06;100.00;101524.53;6293935;22;28504;-88
2024/02/27 10:53:26;;;;;;;;;0.00;0.00;;;;;14.24;100.00;101517.88;6267396;22;28663;-86
2024/02/27 10:55:56;;;;;;;;;0.00;0.00;;;;;14.38;100.00;101525.31;6266276;22;28411;-87
2024/02/27 10:58:24;;;;;;;;;0.00;0.00;;;;;14.46;100.00;101518.03;6266050;22;29131;-87
2024/02/27 11:00:56;;;;;;;;;0.00;0.00;;;;;14.56;100.00;101513.34;6266096;22;28368;-86
2024/02/27 11:03:22;;;;;;;;;0.00;0.00;;;;;14.76;100.00;101505.72;6265527;22;49555;-86
2024/02/27 11:06:04;;;;;;;;;0.00;0.00;;;;;15.15;100.00;101515.72;6267676;22;28552;-90
2024/02/27 11:08:50;;;;;;;;;0.00;0.00;;;;;15.35;100.00;101522.88;6267529;22;28400;-92
2024/02/27 11:22:21;;;;;;;;;0.00;0.00;;;;;15.77;100.00;101526.63;5961514;23;28545;-88
2024/02/27 11:25:05;;;;;;;;;0.00;0.00;;;;;16.04;100.00;101519.44;5943566;23;28312;-90
2024/02/27 11:27:37;;;;;;;;;1.00;0.00;;;;;16.32;100.00;101511.31;5966924;23;28288;-90
2024/02/27 11:30:08;;;;;;;;;0.00;0.00;;;;;16.65;100.00;101516.94;5966186;23;28382;-89
2024/02/27 11:32:36;;;;;;;;;0.00;0.00;;;;;16.96;100.00;101513.03;5943003;23;29188;-88
2024/02/27 11:35:02;;;;;;;;;0.00;0.00;;;;;17.77;100.00;101519.06;5943191;23;28403;-88
2024/02/27 11:37:28;;;;;;;;;0.00;0.00;;;;;18.15;100.00;101519.03;5965658;23;28289;-86
2024/02/27 11:39:53;;;;;;;;;0.00;0.00;;;;;18.41;100.00;101516.91;5965874;23;28433;-86
2024/02/27 11:42:38;;;;;;;;;0.00;0.00;;;;;20.25;100.00;101508.09;5942304;23;45637;-89
2024/02/27 11:45:13;;;;;;;;;0.00;0.00;;;;;20.65;100.00;101513.72;5951810;23;28225;-89
2024/02/27 11:47:58;;;;;;;;;0.00;0.00;;;;;20.19;100.00;101522.50;5966779;23;28371;-91
2024/02/27 11:50:36;;;;;;;;;0.25;0.00;;;;;20.56;100.00;101515.09;5975446;23;28459;-90
2024/02/27 11:53:25;;;;;;;;;0.00;0.00;;;;;20.32;100.00;101509.44;6080782;23;28505;-90
2024/02/27 11:59:12;;;;;;;;;;;;;;;;;;;;;
2024/02/27 12:02:20;;;;;;;;;3.00;0.00;;;;;20.19;100.00;101505.78;6142921;23;56724;-88
2024/02/27 12:05:11;;;;;;;;;0.00;0.00;;;;;19.73;100.00;101501.31;6079741;23;29541;-88
2024/02/27 12:11:43;;;;;;;;;;;;;;;;;;;;;
2024/02/27 12:14:39;;;;;;;;;0.00;0.00;;;;;19.84;100.00;101490.16;6080010;23;54937;-87
2024/02/27 12:17:07;;;;;;;;;0.00;0.00;;;;;20.16;100.00;101503.34;6060962;23;29955;-91
2024/02/27 12:19:32;;;;;;;;;0.00;0.00;;;;;19.84;100.00;101513.94;6033657;23;28802;-87
2024/02/27 12:22:02;;;;;;;;;0.00;0.00;;;;;19.32;100.00;101512.31;6086997;23;28351;-87
2024/02/27 12:24:27;;;;;;;;;2.50;2.00;;;;;18.72;100.00;101516.25;6102054;23;27862;-84